createdAt,value
2023-03-25T00:01:50.789Z,93.30
2023-03-25T00:04:18.552Z,93.30
2023-03-25T00:06:46.874Z,93.60
2023-03-25T00:09:14.661Z,92.60
2023-03-25T00:11:42.364Z,93.30
2023-03-25T00:14:12.151Z,92.40
2023-03-25T00:16:41.209Z,92.50
2023-03-25T00:19:09.229Z,92.20
2023-03-25T00:21:39.773Z,91.70
2023-03-25T00:24:07.799Z,91.60
2023-03-25T00:26:35.923Z,91.30
2023-03-25T00:29:04.058Z,90.70
2023-03-25T00:31:31.807Z,90.30
2023-03-25T00:34:00.863Z,89.60
2023-03-25T00:36:28.784Z,89.10
2023-03-25T00:38:56.547Z,88.00
2023-03-25T00:41:26.880Z,89.30
2023-03-25T00:43:56.904Z,89.00
2023-03-25T00:46:27.276Z,88.70
2023-03-25T00:48:55.496Z,88.30
2023-03-25T00:51:25.765Z,87.60
2023-03-25T00:53:56.007Z,87.50
2023-03-25T00:56:24.816Z,87.20
2023-03-25T00:58:52.928Z,87.50
2023-03-25T01:01:27.001Z,86.90
2023-03-25T01:03:57.492Z,86.50
2023-03-25T01:06:29.700Z,86.60
2023-03-25T01:08:59.052Z,86.90
2023-03-25T01:11:29.270Z,86.50
2023-03-25T01:13:59.613Z,86.90
2023-03-25T01:16:28.448Z,86.60
2023-03-25T01:18:56.834Z,85.30
2023-03-25T01:21:27.460Z,84.90
2023-03-25T01:23:55.273Z,84.80
2023-03-25T01:26:23.020Z,85.20
2023-03-25T01:28:50.785Z,84.90
2023-03-25T01:31:18.526Z,84.20
2023-03-25T01:33:46.315Z,84.50
2023-03-25T01:36:14.340Z,84.10
2023-03-25T01:38:43.750Z,84.00
2023-03-25T01:41:12.293Z,84.10
2023-03-25T01:43:40.288Z,84.10
2023-03-25T01:46:13.935Z,84.20
2023-03-25T01:48:44.872Z,84.20
2023-03-25T01:51:17.737Z,84.00
2023-03-25T01:53:47.703Z,87.00
2023-03-25T01:56:20.350Z,89.50
2023-03-25T01:58:48.712Z,90.60
2023-03-25T02:01:21.546Z,92.30
2023-03-25T02:03:50.747Z,93.90
2023-03-25T02:06:25.078Z,94.90
2023-03-25T02:08:57.347Z,96.30
2023-03-25T02:11:29.533Z,96.80
2023-03-25T02:14:00.434Z,96.80
2023-03-25T02:16:31.694Z,96.80
2023-03-25T02:19:19.200Z,96.80
2023-03-25T02:22:14.622Z,96.80
2023-03-25T02:25:12.565Z,96.80
2023-03-25T02:27:52.017Z,96.80
2023-03-25T02:30:49.850Z,96.80
2023-03-25T02:33:42.106Z,96.80
2023-03-25T02:36:41.597Z,96.80
2023-03-25T02:39:15.545Z,96.80
2023-03-25T02:41:48.891Z,96.80
2023-03-25T02:44:21.574Z,96.80
2023-03-25T02:46:54.119Z,96.50
2023-03-25T02:49:26.148Z,96.60
2023-03-25T02:51:59.894Z,95.50
2023-03-25T02:54:33.398Z,95.10
2023-03-25T02:57:01.943Z,94.20
2023-03-25T02:59:33.231Z,94.10
2023-03-25T03:02:05.066Z,93.40
2023-03-25T03:04:32.891Z,93.50
2023-03-25T03:07:01.011Z,93.10
2023-03-25T03:09:39.723Z,93.40
2023-03-25T03:12:18.021Z,93.10
2023-03-25T03:14:58.478Z,92.50
2023-03-25T03:17:34.962Z,92.40
2023-03-25T03:20:11.567Z,92.50
2023-03-25T03:22:44.176Z,92.40
2023-03-25T03:25:23.710Z,92.00
2023-03-25T03:27:56.391Z,91.90
2023-03-25T03:30:30.040Z,92.00
2023-03-25T03:33:05.198Z,92.60
2023-03-25T03:35:38.263Z,92.10
2023-03-25T03:38:11.253Z,91.60
2023-03-25T03:40:45.884Z,90.40
2023-03-25T03:43:18.425Z,90.80
2023-03-25T03:45:51.275Z,90.00
2023-03-25T03:48:24.839Z,90.10
2023-03-25T03:50:57.184Z,89.40
2023-03-25T03:53:30.780Z,89.70
2023-03-25T03:56:05.261Z,89.10
2023-03-25T03:58:38.308Z,89.20
2023-03-25T04:01:11.220Z,88.90
2023-03-25T04:03:43.588Z,88.60
2023-03-25T04:06:20.957Z,88.70
2023-03-25T04:08:58.695Z,88.70
2023-03-25T04:11:32.572Z,88.70
2023-03-25T04:14:02.910Z,88.20
2023-03-25T04:16:33.901Z,88.30
2023-03-25T04:19:03.886Z,88.60
2023-03-25T04:21:31.806Z,87.00
2023-03-25T04:24:01.385Z,87.20
2023-03-25T04:26:34.046Z,86.70
2023-03-25T04:29:03.099Z,86.80
2023-03-25T04:31:32.269Z,86.50
2023-03-25T04:34:02.135Z,86.70
2023-03-25T04:36:33.461Z,87.20
2023-03-25T04:39:01.306Z,86.80
2023-03-25T04:41:32.000Z,86.40
2023-03-25T04:43:59.891Z,85.70
2023-03-25T04:46:27.808Z,86.00
2023-03-25T04:48:56.724Z,85.80
2023-03-25T04:51:24.429Z,85.70
2023-03-25T04:53:52.115Z,85.40
2023-03-25T04:56:20.029Z,86.10
2023-03-25T04:58:49.118Z,86.30
2023-03-25T05:01:23.882Z,86.20
2023-03-25T05:03:51.695Z,85.40
2023-03-25T05:06:19.515Z,84.90
2023-03-25T05:08:47.267Z,84.50
2023-03-25T05:11:14.997Z,84.60
2023-03-25T05:13:42.689Z,84.80
2023-03-25T05:16:11.751Z,84.80
2023-03-25T05:18:39.636Z,84.90
2023-03-25T05:21:08.397Z,84.70
2023-03-25T05:23:36.094Z,84.40
2023-03-25T05:26:04.416Z,84.60
2023-03-25T05:28:32.187Z,84.40
2023-03-25T05:31:00.207Z,84.50
2023-03-25T05:33:29.229Z,84.50
2023-03-25T05:35:57.252Z,84.10
2023-03-25T05:38:25.055Z,84.60
2023-03-25T05:40:52.795Z,85.20
2023-03-25T05:43:22.842Z,84.90
2023-03-25T05:45:51.222Z,85.60
2023-03-25T05:48:19.119Z,85.90
2023-03-25T05:50:48.249Z,85.20
2023-03-25T05:53:16.384Z,85.90
2023-03-25T05:55:44.336Z,86.30
2023-03-25T05:58:12.083Z,86.40
2023-03-25T06:00:43.004Z,86.60
2023-03-25T06:03:13.936Z,86.00
2023-03-25T06:05:42.138Z,86.40
2023-03-25T06:08:11.133Z,86.80
2023-03-25T06:10:42.521Z,87.20
2023-03-25T06:13:10.182Z,87.00
2023-03-25T06:15:40.486Z,87.30
2023-03-25T06:18:10.453Z,86.40
2023-03-25T06:20:38.353Z,86.80
2023-03-25T06:23:06.542Z,87.20
2023-03-25T06:25:35.557Z,86.20
2023-03-25T06:28:03.990Z,85.80
2023-03-25T06:30:31.789Z,84.60
2023-03-25T06:33:02.913Z,84.80
2023-03-25T06:35:31.512Z,84.90
2023-03-25T06:37:59.368Z,84.50
2023-03-25T06:40:33.126Z,84.50
2023-03-25T06:43:04.852Z,85.30
2023-03-25T06:45:52.797Z,85.60
2023-03-25T06:48:35.605Z,86.10
2023-03-25T06:51:03.300Z,86.20
2023-03-25T06:53:31.630Z,85.90
2023-03-25T06:55:59.738Z,86.30
2023-03-25T06:58:34.603Z,86.20
2023-03-25T07:01:07.532Z,85.70
2023-03-25T07:03:37.021Z,86.00
2023-03-25T07:06:06.673Z,85.60
2023-03-25T07:08:35.077Z,85.60
2023-03-25T07:11:03.072Z,86.40
2023-03-25T07:13:32.846Z,85.20
2023-03-25T07:16:02.970Z,85.10
2023-03-25T07:18:31.275Z,84.20
2023-03-25T07:20:59.445Z,83.40
2023-03-25T07:23:27.200Z,84.30
2023-03-25T07:25:56.783Z,82.00
2023-03-25T07:28:24.838Z,82.30
2023-03-25T07:30:53.961Z,82.10
2023-03-25T07:33:21.750Z,82.80
2023-03-25T07:35:49.729Z,82.60
2023-03-25T07:38:17.836Z,81.90
2023-03-25T07:40:49.893Z,81.60
2023-03-25T07:43:18.195Z,81.40
2023-03-25T07:46:07.800Z,80.50
2023-03-25T07:48:36.947Z,80.10
2023-03-25T07:51:05.236Z,80.60
2023-03-25T07:53:32.955Z,80.80
2023-03-25T07:56:00.897Z,80.40
2023-03-25T07:58:28.591Z,80.70
2023-03-25T08:00:57.816Z,80.60
2023-03-25T08:03:27.950Z,81.20
2023-03-25T08:05:56.309Z,82.30
2023-03-25T08:08:24.341Z,83.00
2023-03-25T08:10:52.620Z,85.90
2023-03-25T08:13:20.379Z,89.10
2023-03-25T08:15:48.210Z,90.30
2023-03-25T08:18:16.333Z,90.30
2023-03-25T08:20:45.411Z,91.90
2023-03-25T08:23:19.651Z,92.80
2023-03-25T08:25:50.337Z,93.10
2023-03-25T08:28:22.160Z,93.80
2023-03-25T08:30:56.416Z,94.10
2023-03-25T08:33:27.075Z,93.60
2023-03-25T08:35:58.451Z,92.60
2023-03-25T08:38:33.893Z,92.90
2023-03-25T08:41:04.660Z,93.40
2023-03-25T08:43:33.512Z,92.90
2023-03-25T08:46:01.256Z,92.30
2023-03-25T08:48:29.104Z,92.00
2023-03-25T08:50:58.367Z,92.50
2023-03-25T08:53:26.515Z,91.80
2023-03-25T08:55:54.758Z,92.50
2023-03-25T08:58:23.365Z,93.00
2023-03-25T09:00:56.759Z,92.80
2023-03-25T09:03:27.241Z,93.30
2023-03-25T09:05:55.149Z,91.80
2023-03-25T09:08:24.233Z,92.50
2023-03-25T09:10:58.696Z,92.50
2023-03-25T09:13:26.892Z,92.50
2023-03-25T09:15:55.285Z,92.70
2023-03-25T09:18:23.245Z,92.60
2023-03-25T09:20:51.928Z,91.10
2023-03-25T09:23:19.820Z,89.20
2023-03-25T09:25:49.053Z,89.80
2023-03-25T09:28:16.895Z,89.20
2023-03-25T09:30:44.646Z,88.90
2023-03-25T09:33:14.107Z,86.40
2023-03-25T09:35:42.191Z,85.40
2023-03-25T09:38:09.972Z,84.00
2023-03-25T09:40:38.899Z,83.20
2023-03-25T09:43:25.744Z,80.10
2023-03-25T09:45:54.321Z,77.40
2023-03-25T09:48:30.618Z,75.40
2023-03-25T09:51:04.968Z,78.80
2023-03-25T09:53:38.606Z,78.30
2023-03-25T09:56:11.501Z,81.30
2023-03-25T09:58:43.677Z,80.00
2023-03-25T10:01:27.116Z,83.50
2023-03-25T10:04:06.637Z,81.90
2023-03-25T10:06:43.686Z,85.40
2023-03-25T10:09:32.757Z,84.00
2023-03-25T10:12:06.657Z,83.30
2023-03-25T10:14:42.520Z,83.00
2023-03-25T10:17:21.098Z,84.20
2023-03-25T10:19:58.053Z,83.50
2023-03-25T10:22:29.182Z,80.00
2023-03-25T10:25:00.784Z,81.80
2023-03-25T10:27:34.830Z,81.70
2023-03-25T10:30:12.728Z,80.80
2023-03-25T10:32:44.401Z,80.90
2023-03-25T10:35:17.997Z,81.00
2023-03-25T10:37:47.574Z,79.10
2023-03-25T10:40:21.793Z,78.20
2023-03-25T10:42:59.534Z,82.20
2023-03-25T10:45:29.719Z,84.20
2023-03-25T10:48:06.123Z,80.20
2023-03-25T10:50:36.154Z,80.70
2023-03-25T10:53:06.722Z,78.20
2023-03-25T10:55:41.211Z,77.90
2023-03-25T10:58:11.887Z,76.60
2023-03-25T11:00:41.005Z,76.60
2023-03-25T11:03:17.064Z,77.80
2023-03-25T11:05:45.579Z,75.80
2023-03-25T11:08:24.147Z,77.40
2023-03-25T11:10:57.634Z,79.30
2023-03-25T11:13:27.593Z,77.40
2023-03-25T11:16:00.694Z,76.60
2023-03-25T11:18:32.596Z,77.60
2023-03-25T11:21:03.799Z,77.90
2023-03-25T11:23:33.994Z,80.60
2023-03-25T11:26:07.070Z,83.50
2023-03-25T11:28:39.789Z,82.60
2023-03-25T11:31:13.524Z,82.10
2023-03-25T11:33:45.868Z,78.70
2023-03-25T11:36:27.697Z,79.10
2023-03-25T11:39:01.539Z,79.40
2023-03-25T11:41:31.335Z,77.00
2023-03-25T11:44:00.801Z,78.10
2023-03-25T11:46:31.567Z,80.00
2023-03-25T11:49:11.746Z,80.50
2023-03-25T11:51:39.756Z,81.40
2023-03-25T11:54:12.999Z,83.60
2023-03-25T11:56:45.111Z,86.80
2023-03-25T11:59:26.666Z,89.60
2023-03-25T12:02:04.444Z,89.70
2023-03-25T12:04:32.395Z,90.10
2023-03-25T12:07:02.116Z,93.20
2023-03-25T12:09:32.820Z,92.10
2023-03-25T12:12:21.492Z,89.20
2023-03-25T12:14:57.325Z,85.50
2023-03-25T12:17:39.375Z,85.00
2023-03-25T12:20:19.252Z,83.80
2023-03-25T12:23:01.427Z,82.90
2023-03-25T12:25:39.768Z,84.10
2023-03-25T12:28:30.767Z,84.70
2023-03-25T12:31:07.280Z,84.70
2023-03-25T12:33:49.138Z,83.70
2023-03-25T12:36:28.119Z,82.70
2023-03-25T12:39:15.192Z,82.40
2023-03-25T12:41:50.817Z,81.90
2023-03-25T12:44:33.367Z,82.00
2023-03-25T12:47:13.744Z,80.10
2023-03-25T12:50:06.351Z,80.30
2023-03-25T12:52:41.259Z,81.50
2023-03-25T12:55:28.850Z,76.60
2023-03-25T12:58:11.074Z,77.90
2023-03-25T13:00:48.079Z,79.00
2023-03-25T13:03:31.044Z,78.00
2023-03-25T13:06:08.569Z,77.60
2023-03-25T13:08:42.925Z,76.80
2023-03-25T13:11:16.350Z,76.00
2023-03-25T13:13:47.115Z,76.30
2023-03-25T13:16:20.026Z,76.40
2023-03-25T13:18:55.824Z,76.90
2023-03-25T13:21:28.238Z,77.20
2023-03-25T13:24:00.310Z,78.20
2023-03-25T13:26:31.251Z,78.40
2023-03-25T13:29:02.025Z,84.20
2023-03-25T13:31:35.279Z,84.00
2023-03-25T13:34:20.130Z,84.00
2023-03-25T13:37:04.708Z,83.00
2023-03-25T13:39:49.813Z,83.30
2023-03-25T13:42:23.432Z,81.20
2023-03-25T13:44:55.117Z,80.40
2023-03-25T13:47:27.917Z,77.80
2023-03-25T13:49:58.332Z,79.10
2023-03-25T13:52:32.852Z,78.10
2023-03-25T13:55:04.408Z,77.40
2023-03-25T13:57:54.358Z,77.70
2023-03-25T14:00:39.521Z,76.50
2023-03-25T14:03:30.272Z,75.10
2023-03-25T14:06:20.303Z,74.20
2023-03-25T14:09:16.633Z,72.60
2023-03-25T14:11:49.445Z,73.80
2023-03-25T14:14:20.260Z,72.60
2023-03-25T14:16:52.998Z,72.40
2023-03-25T14:19:31.641Z,72.70
2023-03-25T14:22:00.004Z,71.40
2023-03-25T14:24:32.582Z,71.80
2023-03-25T14:27:03.648Z,70.30
2023-03-25T14:29:38.556Z,70.80
2023-03-25T14:32:26.806Z,70.70
2023-03-25T14:35:00.544Z,70.80
2023-03-25T14:37:30.744Z,71.10
2023-03-25T14:40:08.348Z,70.20
2023-03-25T14:42:43.597Z,69.40
2023-03-25T14:45:35.495Z,68.90
2023-03-25T14:48:19.351Z,67.50
2023-03-25T14:51:07.307Z,67.80
2023-03-25T14:53:35.566Z,66.40
2023-03-25T14:56:08.427Z,65.20
2023-03-25T14:58:41.150Z,67.00
2023-03-25T15:01:15.036Z,67.70
2023-03-25T15:03:49.166Z,67.60
2023-03-25T15:06:19.268Z,67.00
2023-03-25T15:08:54.926Z,67.30
2023-03-25T15:11:34.291Z,68.00
2023-03-25T15:14:07.807Z,68.50
2023-03-25T15:16:39.544Z,69.20
2023-03-25T15:19:12.835Z,68.10
2023-03-25T15:22:11.083Z,66.00
2023-03-25T15:24:43.068Z,66.10
2023-03-25T15:27:21.873Z,67.00
2023-03-25T15:29:59.833Z,68.30
2023-03-25T15:32:42.790Z,69.10
2023-03-25T15:35:35.621Z,68.50
2023-03-25T15:38:24.510Z,68.90
2023-03-25T15:41:12.981Z,69.40
2023-03-25T15:44:01.212Z,68.00
2023-03-25T15:46:48.538Z,68.10
2023-03-25T15:49:40.074Z,69.60
2023-03-25T15:52:20.695Z,69.40
2023-03-25T15:54:52.613Z,69.40
2023-03-25T15:57:25.839Z,69.40
2023-03-25T16:00:01.899Z,68.20
2023-03-25T16:02:39.334Z,67.70
2023-03-25T16:05:08.655Z,67.00
2023-03-25T16:07:36.944Z,67.70
2023-03-25T16:10:14.565Z,67.60
2023-03-25T16:12:44.239Z,68.10
2023-03-25T16:15:16.954Z,67.70
2023-03-25T16:17:47.887Z,67.90
2023-03-25T16:20:20.732Z,68.50
2023-03-25T16:22:52.996Z,68.20
2023-03-25T16:25:26.930Z,68.90
2023-03-25T16:27:58.034Z,69.30
2023-03-25T16:30:30.578Z,70.30
2023-03-25T16:33:11.733Z,70.50
2023-03-25T16:35:43.480Z,70.10
2023-03-25T16:38:17.611Z,70.70
2023-03-25T16:40:47.744Z,70.10
2023-03-25T16:43:19.874Z,69.60
2023-03-25T16:45:53.630Z,70.40
2023-03-25T16:48:26.582Z,71.00
2023-03-25T16:50:55.642Z,70.30
2023-03-25T16:53:24.768Z,69.20
2023-03-25T16:56:00.432Z,68.60
2023-03-25T16:58:29.069Z,68.50
2023-03-25T17:01:01.976Z,68.20
2023-03-25T17:03:46.367Z,67.20
2023-03-25T17:06:22.720Z,67.30
2023-03-25T17:08:51.548Z,67.90
2023-03-25T17:11:20.431Z,66.90
2023-03-25T17:13:52.033Z,66.30
2023-03-25T17:16:22.460Z,66.40
2023-03-25T17:18:52.699Z,66.90
2023-03-25T17:21:26.523Z,67.60
2023-03-25T17:23:57.592Z,67.30
2023-03-25T17:26:33.264Z,67.30
2023-03-25T17:29:03.470Z,67.00
2023-03-25T17:31:36.453Z,67.00
2023-03-25T17:34:08.162Z,67.30
2023-03-25T17:36:40.226Z,67.80
2023-03-25T17:39:19.796Z,67.60
2023-03-25T17:41:48.721Z,67.70
2023-03-25T17:44:17.835Z,67.80
2023-03-25T17:46:47.138Z,68.80
2023-03-25T17:49:19.275Z,68.50
2023-03-25T17:51:47.628Z,68.70
2023-03-25T17:54:16.498Z,69.30
2023-03-25T17:56:46.660Z,69.70
2023-03-25T17:59:19.170Z,69.10
2023-03-25T18:01:49.980Z,69.10
2023-03-25T18:04:19.912Z,69.70
2023-03-25T18:06:48.286Z,70.20
2023-03-25T18:09:19.825Z,69.20
2023-03-25T18:11:52.505Z,69.40
2023-03-25T18:14:20.280Z,70.00
2023-03-25T18:16:49.492Z,69.70
2023-03-25T18:19:20.341Z,70.00
2023-03-25T18:21:48.203Z,70.60
2023-03-25T18:24:16.115Z,70.90
2023-03-25T18:26:44.894Z,70.70
2023-03-25T18:29:18.127Z,71.30
2023-03-25T18:31:46.289Z,71.50
2023-03-25T18:34:16.136Z,71.90
2023-03-25T18:36:45.098Z,72.10
2023-03-25T18:39:15.787Z,72.60
2023-03-25T18:41:44.192Z,72.50
2023-03-25T18:44:12.870Z,72.50
2023-03-25T18:46:41.389Z,72.60
2023-03-25T18:49:13.367Z,73.70
2023-03-25T18:51:42.660Z,80.20
2023-03-25T18:54:10.751Z,82.60
2023-03-25T18:56:41.385Z,83.60
2023-03-25T18:59:09.648Z,83.70
2023-03-25T19:01:37.489Z,84.80
2023-03-25T19:04:05.832Z,84.40
2023-03-25T19:06:33.957Z,85.50
2023-03-25T19:09:04.231Z,86.10
2023-03-25T19:11:33.740Z,85.40
2023-03-25T19:14:03.437Z,85.40
2023-03-25T19:16:31.242Z,85.20
2023-03-25T19:19:01.994Z,85.30
2023-03-25T19:21:31.170Z,85.70
2023-03-25T19:23:58.859Z,84.70
2023-03-25T19:26:28.056Z,84.90
2023-03-25T19:28:55.892Z,84.40
2023-03-25T19:31:23.699Z,84.10
2023-03-25T19:33:52.230Z,83.60
2023-03-25T19:36:23.053Z,84.10
2023-03-25T19:38:53.059Z,84.20
2023-03-25T19:41:20.834Z,84.00
2023-03-25T19:43:50.255Z,83.10
2023-03-25T19:46:19.396Z,83.40
2023-03-25T19:48:47.154Z,82.90
2023-03-25T19:51:15.153Z,83.90
2023-03-25T19:53:42.922Z,83.40
2023-03-25T19:56:13.856Z,83.10
2023-03-25T19:58:42.185Z,83.30
2023-03-25T20:01:12.117Z,82.40
2023-03-25T20:03:41.960Z,83.20
2023-03-25T20:06:11.238Z,82.80
2023-03-25T20:08:39.584Z,83.20
2023-03-25T20:11:11.946Z,83.30
2023-03-25T20:13:40.007Z,82.80
2023-03-25T20:16:08.722Z,84.30
2023-03-25T20:18:41.207Z,83.00
2023-03-25T20:21:09.714Z,81.40
2023-03-25T20:23:38.800Z,82.50
2023-03-25T20:26:06.886Z,82.80
2023-03-25T20:28:36.024Z,82.40
2023-03-25T20:31:14.907Z,83.80
2023-03-25T20:33:44.015Z,83.40
2023-03-25T20:36:11.759Z,84.00
2023-03-25T20:38:41.971Z,84.60
2023-03-25T20:41:15.478Z,85.20
2023-03-25T20:43:43.313Z,86.00
2023-03-25T20:46:14.091Z,86.90
2023-03-25T20:48:41.986Z,88.80
2023-03-25T20:51:11.538Z,90.00
2023-03-25T20:53:40.347Z,91.30
2023-03-25T20:56:08.153Z,92.30
2023-03-25T20:58:35.857Z,93.00
2023-03-25T21:01:05.321Z,93.80
2023-03-25T21:03:35.222Z,93.80
2023-03-25T21:06:16.823Z,92.80
2023-03-25T21:08:54.524Z,93.30
2023-03-25T21:11:23.603Z,92.50
2023-03-25T21:13:51.379Z,92.80
2023-03-25T21:16:19.352Z,93.80
2023-03-25T21:18:47.601Z,93.40
2023-03-25T21:21:15.402Z,92.90
2023-03-25T21:23:44.819Z,93.20
2023-03-25T21:26:16.224Z,92.10
2023-03-25T21:28:44.498Z,92.00
2023-03-25T21:31:16.782Z,92.20
2023-03-25T21:33:45.495Z,93.20
2023-03-25T21:36:14.745Z,92.80
2023-03-25T21:38:43.081Z,93.00
2023-03-25T21:41:13.102Z,92.60
2023-03-25T21:43:42.135Z,92.80
2023-03-25T21:46:10.868Z,92.50
2023-03-25T21:48:44.560Z,92.70
2023-03-25T21:51:14.414Z,92.50
2023-03-25T21:53:45.302Z,92.50
2023-03-25T21:56:17.354Z,92.50
2023-03-25T21:58:46.875Z,92.30
2023-03-25T22:01:16.799Z,92.10
2023-03-25T22:03:46.357Z,91.20
2023-03-25T22:06:16.509Z,91.30
2023-03-25T22:08:45.018Z,91.70
2023-03-25T22:11:16.043Z,92.50
2023-03-25T22:13:44.443Z,92.20
2023-03-25T22:16:14.941Z,91.70
2023-03-25T22:18:43.888Z,92.30
2023-03-25T22:21:14.877Z,92.60
2023-03-25T22:23:44.907Z,93.40
2023-03-25T22:26:15.552Z,93.70
2023-03-25T22:28:43.554Z,94.10
2023-03-25T22:31:12.042Z,94.30
2023-03-25T22:33:40.763Z,94.40
2023-03-25T22:36:12.441Z,94.20
2023-03-25T22:38:40.799Z,94.20
2023-03-25T22:41:09.745Z,94.20
2023-03-25T22:43:38.792Z,94.20
2023-03-25T22:46:07.916Z,94.10
2023-03-25T22:48:38.937Z,94.40
2023-03-25T22:51:07.570Z,95.10
2023-03-25T22:53:35.275Z,95.60
2023-03-25T22:56:03.740Z,95.70
2023-03-25T22:58:32.095Z,95.40
2023-03-25T23:01:03.254Z,95.60
2023-03-25T23:03:31.624Z,95.50
2023-03-25T23:06:01.816Z,95.50
2023-03-25T23:08:32.321Z,95.40
2023-03-25T23:11:03.050Z,95.60
2023-03-25T23:13:31.284Z,95.60
2023-03-25T23:16:02.766Z,95.50
2023-03-25T23:18:30.539Z,95.60
2023-03-25T23:20:59.397Z,95.60
2023-03-25T23:23:28.778Z,95.70
2023-03-25T23:26:05.844Z,95.60
2023-03-25T23:28:36.356Z,95.40
2023-03-25T23:31:10.466Z,95.10
2023-03-25T23:33:38.347Z,95.20
2023-03-25T23:36:07.672Z,95.40
2023-03-25T23:38:35.417Z,95.50
2023-03-25T23:41:04.506Z,95.70
2023-03-25T23:43:32.738Z,95.50
2023-03-25T23:46:00.589Z,95.40
2023-03-25T23:48:30.028Z,95.70
2023-03-25T23:50:59.206Z,95.80
2023-03-25T23:53:28.018Z,95.90
2023-03-25T23:55:56.755Z,95.60
2023-03-25T23:58:25.539Z,95.80
